createdAt,value
2023-01-03T00:01:47.643Z,26.52
2023-01-03T00:04:15.724Z,19.83
2023-01-03T00:06:48.940Z,28.83
2023-01-03T00:09:19.517Z,21.15
2023-01-03T00:12:07.493Z,21.52
2023-01-03T00:14:38.608Z,22.42
2023-01-03T00:17:08.442Z,26.25
2023-01-03T00:19:40.955Z,22.45
2023-01-03T00:22:09.264Z,21.77
2023-01-03T00:24:36.717Z,23.60
2023-01-03T00:27:04.402Z,22.02
2023-01-03T00:29:31.867Z,22.83
2023-01-03T00:31:59.192Z,19.15
2023-01-03T00:34:27.374Z,20.30
2023-01-03T00:36:55.311Z,23.80
2023-01-03T00:39:23.489Z,25.20
2023-01-03T00:41:51.149Z,21.88
2023-01-03T00:44:19.448Z,22.83
2023-01-03T00:46:46.607Z,18.42
2023-01-03T00:49:14.343Z,20.73
2023-01-03T00:51:42.660Z,18.15
2023-01-03T00:54:13.739Z,18.40
2023-01-03T00:56:43.651Z,18.55
2023-01-03T00:59:12.090Z,19.17
2023-01-03T01:01:47.616Z,19.73
2023-01-03T01:04:20.388Z,19.65
2023-01-03T01:06:50.970Z,17.50
2023-01-03T01:09:21.123Z,17.48
2023-01-03T01:11:49.023Z,23.38
2023-01-03T01:14:20.474Z,16.85
2023-01-03T01:16:53.075Z,16.90
2023-01-03T01:19:23.642Z,18.52
2023-01-03T01:21:51.637Z,19.27
2023-01-03T01:24:19.396Z,16.70
2023-01-03T01:26:47.350Z,17.25
2023-01-03T01:29:16.115Z,19.73
2023-01-03T01:31:44.932Z,19.10
2023-01-03T01:34:13.579Z,19.00
2023-01-03T01:36:42.600Z,16.30
2023-01-03T01:39:18.765Z,17.35
2023-01-03T01:42:05.602Z,17.08
2023-01-03T01:44:58.025Z,23.17
2023-01-03T01:47:43.202Z,15.77
2023-01-03T01:50:10.577Z,17.17
2023-01-03T01:52:46.457Z,19.55
2023-01-03T01:55:16.818Z,15.77
2023-01-03T01:57:44.926Z,18.30
2023-01-03T02:00:13.356Z,18.90
2023-01-03T02:02:47.484Z,19.13
2023-01-03T02:05:17.392Z,19.35
2023-01-03T02:07:45.080Z,18.73
2023-01-03T02:10:12.772Z,18.50
2023-01-03T02:13:03.534Z,17.02
2023-01-03T02:15:55.907Z,19.70
2023-01-03T02:18:38.126Z,17.33
2023-01-03T02:21:29.811Z,15.57
2023-01-03T02:24:22.536Z,18.33
2023-01-03T02:27:27.427Z,24.88
2023-01-03T02:30:32.566Z,17.00
2023-01-03T02:33:02.882Z,17.45
2023-01-03T02:35:36.963Z,20.73
2023-01-03T02:38:26.354Z,20.23
2023-01-03T02:41:03.313Z,19.17
2023-01-03T02:44:07.393Z,16.60
2023-01-03T02:47:05.813Z,16.48
2023-01-03T02:49:38.461Z,21.30
2023-01-03T02:52:12.064Z,17.27
2023-01-03T02:54:49.941Z,16.00
2023-01-03T02:57:20.960Z,15.95
2023-01-03T02:59:53.332Z,15.15
2023-01-03T03:02:23.615Z,16.42
2023-01-03T03:04:55.869Z,15.77
2023-01-03T03:07:29.687Z,14.65
2023-01-03T03:10:16.163Z,15.75
2023-01-03T03:13:05.923Z,17.50
2023-01-03T03:15:57.641Z,13.00
2023-01-03T03:18:59.887Z,14.32
2023-01-03T03:21:51.553Z,12.88
2023-01-03T03:24:45.097Z,14.40
2023-01-03T03:27:33.381Z,15.25
2023-01-03T03:30:02.288Z,11.05
2023-01-03T03:32:31.934Z,13.43
2023-01-03T03:35:00.251Z,15.90
2023-01-03T03:37:28.193Z,10.65
2023-01-03T03:40:14.605Z,12.07
2023-01-03T03:43:23.792Z,12.73
2023-01-03T03:46:05.822Z,9.18
2023-01-03T03:49:17.549Z,11.13
2023-01-03T03:51:46.350Z,11.50
2023-01-03T03:54:17.403Z,10.88
2023-01-03T03:57:02.328Z,9.18
2023-01-03T03:59:31.644Z,9.30
2023-01-03T04:01:59.881Z,10.05
2023-01-03T04:04:32.905Z,10.00
2023-01-03T04:07:02.412Z,11.43
2023-01-03T04:09:30.086Z,12.32
2023-01-03T04:11:57.595Z,11.52
2023-01-03T04:14:25.102Z,11.48
2023-01-03T04:16:52.332Z,11.30
2023-01-03T04:19:19.697Z,13.23
2023-01-03T04:21:46.818Z,9.95
2023-01-03T04:24:14.433Z,9.80
2023-01-03T04:26:41.679Z,11.60
2023-01-03T04:29:09.136Z,10.57
2023-01-03T04:31:37.602Z,7.55
2023-01-03T04:34:05.000Z,9.70
2023-01-03T04:36:32.383Z,11.93
2023-01-03T04:39:00.517Z,6.57
2023-01-03T04:41:27.641Z,8.88
2023-01-03T04:44:07.513Z,6.38
2023-01-03T04:46:36.452Z,7.18
2023-01-03T04:49:05.805Z,6.25
2023-01-03T04:51:33.403Z,11.45
2023-01-03T04:54:01.167Z,8.10
2023-01-03T04:56:36.532Z,6.60
2023-01-03T04:59:05.170Z,12.00
2023-01-03T05:01:32.547Z,11.50
2023-01-03T05:04:01.683Z,9.48
2023-01-03T05:06:29.274Z,12.00
2023-01-03T05:08:56.785Z,9.32
2023-01-03T05:11:24.644Z,9.90
2023-01-03T05:13:52.303Z,6.38
2023-01-03T05:16:19.691Z,8.43
2023-01-03T05:18:48.934Z,8.57
2023-01-03T05:21:38.381Z,11.25
2023-01-03T05:24:25.347Z,9.10
2023-01-03T05:26:52.970Z,18.02
2023-01-03T05:29:22.008Z,9.65
2023-01-03T05:32:49.032Z,9.63
2023-01-03T05:35:18.833Z,11.70
2023-01-03T05:37:46.316Z,8.00
2023-01-03T05:40:13.856Z,8.52
2023-01-03T05:42:41.253Z,8.52
2023-01-03T05:45:09.410Z,7.40
2023-01-03T05:47:36.740Z,7.05
2023-01-03T05:50:07.139Z,7.53
2023-01-03T05:52:34.978Z,7.50
2023-01-03T05:55:03.817Z,6.80
2023-01-03T05:57:35.409Z,11.20
2023-01-03T06:00:04.732Z,9.00
2023-01-03T06:02:32.694Z,7.60
2023-01-03T06:05:00.174Z,7.57
2023-01-03T06:07:29.875Z,6.57
2023-01-03T06:09:57.741Z,4.22
2023-01-03T06:12:27.712Z,6.88
2023-01-03T06:14:56.137Z,8.73
2023-01-03T06:17:41.836Z,6.82
2023-01-03T06:20:11.136Z,6.63
2023-01-03T06:22:39.562Z,9.05
2023-01-03T06:25:07.883Z,7.40
2023-01-03T06:27:35.486Z,6.47
2023-01-03T06:30:03.630Z,6.07
2023-01-03T06:32:31.082Z,8.38
2023-01-03T06:34:58.342Z,8.27
2023-01-03T06:37:25.626Z,5.57
2023-01-03T06:39:53.085Z,7.05
2023-01-03T06:42:38.890Z,5.72
2023-01-03T06:45:25.782Z,6.22
2023-01-03T06:48:12.006Z,5.93
2023-01-03T06:51:02.509Z,7.10
2023-01-03T06:53:34.224Z,6.78
2023-01-03T06:56:02.386Z,6.07
2023-01-03T06:58:30.010Z,6.55
2023-01-03T07:00:59.818Z,5.75
2023-01-03T07:03:27.185Z,4.68
2023-01-03T07:05:54.709Z,4.78
2023-01-03T07:08:21.881Z,3.60
2023-01-03T07:10:49.503Z,5.63
2023-01-03T07:13:35.566Z,2.67
2023-01-03T07:16:03.189Z,4.53
2023-01-03T07:18:31.732Z,6.35
2023-01-03T07:20:59.447Z,5.35
2023-01-03T07:23:26.758Z,4.30
2023-01-03T07:25:55.863Z,7.00
2023-01-03T07:28:23.585Z,6.85
2023-01-03T07:30:51.300Z,3.88
2023-01-03T07:33:19.380Z,5.82
2023-01-03T07:35:46.975Z,4.78
2023-01-03T07:38:14.596Z,4.25
2023-01-03T07:40:42.270Z,5.70
2023-01-03T07:43:31.189Z,3.35
2023-01-03T07:45:58.817Z,3.15
2023-01-03T07:48:26.190Z,6.38
2023-01-03T07:50:58.177Z,2.78
2023-01-03T07:53:25.986Z,4.60
2023-01-03T07:55:53.553Z,4.00
2023-01-03T07:58:20.723Z,5.53
2023-01-03T08:00:48.391Z,5.40
2023-01-03T08:03:16.107Z,5.05
2023-01-03T08:05:43.795Z,4.93
2023-01-03T08:08:11.235Z,3.05
2023-01-03T08:10:57.193Z,6.53
2023-01-03T08:13:25.350Z,4.63
2023-01-03T08:15:57.034Z,4.00
2023-01-03T08:18:26.368Z,5.13
2023-01-03T08:20:56.735Z,5.05
2023-01-03T08:23:25.152Z,7.78
2023-01-03T08:25:59.923Z,4.68
2023-01-03T08:28:27.067Z,6.72
2023-01-03T08:30:54.876Z,5.03
2023-01-03T08:33:22.097Z,7.60
2023-01-03T08:36:08.759Z,5.22
2023-01-03T08:38:41.707Z,5.18
2023-01-03T08:41:10.767Z,5.68
2023-01-03T08:43:39.979Z,7.78
2023-01-03T08:46:08.903Z,7.30
2023-01-03T08:48:36.204Z,4.82
2023-01-03T08:51:03.987Z,3.58
2023-01-03T08:53:31.429Z,6.75
2023-01-03T08:55:59.018Z,6.72
2023-01-03T08:58:26.707Z,7.28
2023-01-03T09:00:54.538Z,8.63
2023-01-03T09:03:21.846Z,9.63
2023-01-03T09:05:49.486Z,7.28
2023-01-03T09:08:18.563Z,6.28
2023-01-03T09:10:47.971Z,7.78
2023-01-03T09:13:15.463Z,5.05
2023-01-03T09:15:43.062Z,7.60
2023-01-03T09:18:10.599Z,5.78
2023-01-03T09:20:38.193Z,8.23
2023-01-03T09:23:05.706Z,5.10
2023-01-03T09:25:37.055Z,8.07
2023-01-03T09:28:04.834Z,5.57
2023-01-03T09:30:32.394Z,6.35
2023-01-03T09:32:59.720Z,8.88
2023-01-03T09:35:27.389Z,8.15
2023-01-03T09:37:54.807Z,11.52
2023-01-03T09:40:22.662Z,8.20
2023-01-03T09:43:10.740Z,9.48
2023-01-03T09:45:40.003Z,7.20
2023-01-03T09:48:07.446Z,8.35
2023-01-03T09:51:14.004Z,13.23
2023-01-03T09:53:48.297Z,11.82
2023-01-03T09:56:34.376Z,11.52
2023-01-03T09:59:29.476Z,9.65
2023-01-03T10:02:34.186Z,9.95
2023-01-03T10:05:21.422Z,8.38
2023-01-03T10:08:17.404Z,6.38
2023-01-03T10:11:10.427Z,6.15
2023-01-03T10:13:41.537Z,5.18
2023-01-03T10:16:08.839Z,5.88
2023-01-03T10:18:49.940Z,3.92
2023-01-03T10:21:40.376Z,4.95
2023-01-03T10:24:41.901Z,5.18
2023-01-03T10:27:26.711Z,6.40
2023-01-03T10:29:56.793Z,7.50
2023-01-03T10:32:45.635Z,5.95
2023-01-03T10:35:22.372Z,5.03
2023-01-03T10:37:54.698Z,7.03
2023-01-03T10:40:35.304Z,10.18
2023-01-03T10:43:29.664Z,9.05
2023-01-03T10:46:00.897Z,7.93
2023-01-03T10:49:08.336Z,6.95
2023-01-03T10:51:42.691Z,6.28
2023-01-03T10:54:25.150Z,6.53
2023-01-03T10:56:52.976Z,4.93
2023-01-03T10:59:26.745Z,6.35
2023-01-03T11:02:13.780Z,5.70
2023-01-03T11:04:41.416Z,6.80
2023-01-03T11:07:09.116Z,4.95
2023-01-03T11:09:50.406Z,6.05
2023-01-03T11:12:37.169Z,4.45
2023-01-03T11:15:15.697Z,6.75
2023-01-03T11:18:03.576Z,6.68
2023-01-03T11:20:50.056Z,7.53
2023-01-03T11:23:39.901Z,7.65
2023-01-03T11:26:19.750Z,6.03
2023-01-03T11:29:13.876Z,8.27
2023-01-03T11:32:17.805Z,7.65
2023-01-03T11:35:25.323Z,5.30
2023-01-03T11:38:08.033Z,8.75
2023-01-03T11:41:03.218Z,9.70
2023-01-03T11:43:59.396Z,7.20
2023-01-03T11:46:37.016Z,7.13
2023-01-03T11:49:12.556Z,8.20
2023-01-03T11:52:17.747Z,5.32
2023-01-03T11:55:00.356Z,8.32
2023-01-03T11:58:06.125Z,14.15
2023-01-03T12:01:00.704Z,8.43
2023-01-03T12:04:45.458Z,12.75
2023-01-03T12:07:47.660Z,8.88
2023-01-03T12:10:32.193Z,8.82
2023-01-03T12:13:30.265Z,11.30
2023-01-03T12:16:09.190Z,8.85
2023-01-03T12:18:42.382Z,7.65
2023-01-03T12:21:18.938Z,9.88
2023-01-03T12:23:50.048Z,7.68
2023-01-03T12:26:17.617Z,5.28
2023-01-03T12:28:51.450Z,7.70
2023-01-03T12:31:33.218Z,8.25
2023-01-03T12:34:39.850Z,6.63
2023-01-03T12:37:17.646Z,10.77
2023-01-03T12:39:48.143Z,7.97
2023-01-03T12:42:37.589Z,8.60
2023-01-03T12:45:07.828Z,8.85
2023-01-03T12:47:41.180Z,12.98
2023-01-03T12:50:32.993Z,12.57
2023-01-03T12:53:20.751Z,8.77
2023-01-03T12:56:00.051Z,6.07
2023-01-03T12:58:37.180Z,6.93
2023-01-03T13:01:36.362Z,6.10
2023-01-03T13:04:29.408Z,5.53
2023-01-03T13:07:17.088Z,7.37
2023-01-03T13:09:49.930Z,3.47
2023-01-03T13:12:19.750Z,3.75
2023-01-03T13:15:03.981Z,6.03
2023-01-03T13:17:32.907Z,6.78
2023-01-03T13:20:25.854Z,9.07
2023-01-03T13:22:57.529Z,12.02
2023-01-03T13:25:44.366Z,10.43
2023-01-03T13:28:24.902Z,8.18
2023-01-03T13:31:15.688Z,5.32
2023-01-03T13:33:49.028Z,4.50
2023-01-03T13:36:16.644Z,7.57
2023-01-03T13:38:44.058Z,6.25
2023-01-03T13:41:33.423Z,5.32
2023-01-03T13:44:09.550Z,10.30
2023-01-03T13:46:39.761Z,7.10
2023-01-03T13:49:08.094Z,7.93
2023-01-03T13:51:49.801Z,7.60
2023-01-03T13:54:17.006Z,5.50
2023-01-03T13:56:44.570Z,5.35
2023-01-03T13:59:18.020Z,3.25
2023-01-03T14:02:10.404Z,5.65
2023-01-03T14:05:09.030Z,6.25
2023-01-03T14:07:58.446Z,8.75
2023-01-03T14:10:33.373Z,3.40
2023-01-03T14:13:27.410Z,8.57
2023-01-03T14:16:25.408Z,7.78
2023-01-03T14:19:15.758Z,5.75
2023-01-03T14:21:55.792Z,8.48
2023-01-03T14:24:26.830Z,3.47
2023-01-03T14:26:54.825Z,6.50
2023-01-03T14:29:24.607Z,5.20
2023-01-03T14:31:56.038Z,11.85
2023-01-03T14:34:36.250Z,7.22
2023-01-03T14:37:06.711Z,7.03
2023-01-03T14:42:02.650Z,5.68
2023-01-03T14:44:31.255Z,6.00
2023-01-03T14:47:07.105Z,11.45
2023-01-03T14:49:42.585Z,7.50
2023-01-03T14:52:17.788Z,5.15
2023-01-03T14:54:48.176Z,11.07
2023-01-03T14:57:26.579Z,7.93
2023-01-03T14:59:57.051Z,24.48
2023-01-03T15:02:25.135Z,16.48
2023-01-03T15:04:57.870Z,9.50
2023-01-03T15:07:37.659Z,12.85
2023-01-03T15:10:11.514Z,11.88
2023-01-03T15:12:50.646Z,9.50
2023-01-03T15:15:21.254Z,13.15
2023-01-03T15:17:51.749Z,15.65
2023-01-03T15:20:24.367Z,10.75
2023-01-03T15:22:51.952Z,14.15
2023-01-03T15:25:25.788Z,12.93
2023-01-03T15:27:53.438Z,10.63
2023-01-03T15:30:24.888Z,8.43
2023-01-03T15:32:59.731Z,9.98
2023-01-03T15:35:33.167Z,12.73
2023-01-03T15:38:01.747Z,13.25
2023-01-03T15:40:31.074Z,11.32
2023-01-03T15:43:22.550Z,16.88
2023-01-03T15:45:58.255Z,11.25
2023-01-03T15:48:26.405Z,14.40
2023-01-03T15:50:56.141Z,14.23
2023-01-03T15:53:43.183Z,10.90
2023-01-03T15:56:14.913Z,7.72
2023-01-03T15:58:42.840Z,10.88
2023-01-03T16:01:12.001Z,11.95
2023-01-03T16:03:40.185Z,15.00
2023-01-03T16:06:08.034Z,15.57
2023-01-03T16:08:37.636Z,14.07
2023-01-03T16:11:33.384Z,12.65
2023-01-03T16:14:04.214Z,13.63
2023-01-03T16:16:34.730Z,17.38
2023-01-03T16:19:04.243Z,12.38
2023-01-03T16:21:32.121Z,8.43
2023-01-03T16:23:59.618Z,10.13
2023-01-03T16:26:27.144Z,11.20
2023-01-03T16:28:54.659Z,8.07
2023-01-03T16:31:30.127Z,9.55
2023-01-03T16:33:57.750Z,5.90
2023-01-03T16:36:32.609Z,10.75
2023-01-03T16:39:01.711Z,9.55
2023-01-03T16:41:29.934Z,11.32
2023-01-03T16:43:57.556Z,10.98
2023-01-03T16:46:26.243Z,15.32
2023-01-03T16:48:56.745Z,9.65
2023-01-03T16:51:28.021Z,12.40
2023-01-03T16:53:57.088Z,8.98
2023-01-03T16:56:25.524Z,12.88
2023-01-03T16:58:53.439Z,14.40
2023-01-03T17:01:21.308Z,12.88
2023-01-03T17:03:48.869Z,12.95
2023-01-03T17:06:29.266Z,12.10
2023-01-03T17:09:05.900Z,14.48
2023-01-03T17:11:34.203Z,11.98
2023-01-03T17:14:03.029Z,11.32
2023-01-03T17:16:32.974Z,19.92
2023-01-03T17:19:00.461Z,13.30
2023-01-03T17:21:35.215Z,13.13
2023-01-03T17:24:08.025Z,13.60
2023-01-03T17:29:05.384Z,10.77
2023-01-03T17:31:33.302Z,11.82
2023-01-03T17:34:00.663Z,11.02
2023-01-03T17:36:31.761Z,12.95
2023-01-03T17:39:03.628Z,15.18
2023-01-03T17:41:51.595Z,15.32
2023-01-03T17:44:18.911Z,20.40
2023-01-03T17:47:04.971Z,18.63
2023-01-03T17:49:32.261Z,18.25
2023-01-03T17:52:06.522Z,19.33
2023-01-03T17:54:40.873Z,25.15
2023-01-03T17:57:11.750Z,21.23
2023-01-03T17:59:39.019Z,17.75
2023-01-03T18:02:21.544Z,22.35
2023-01-03T18:05:15.061Z,21.27
2023-01-03T18:07:37.428Z,17.23
2023-01-03T18:10:06.767Z,18.58
2023-01-03T18:12:34.564Z,13.90
2023-01-03T18:15:01.941Z,17.38
2023-01-03T18:17:32.600Z,15.32
2023-01-03T18:20:01.212Z,21.63
2023-01-03T18:22:29.354Z,13.95
2023-01-03T18:24:57.592Z,22.67
2023-01-03T18:27:27.600Z,13.00
2023-01-03T18:29:54.900Z,9.45
2023-01-03T18:32:31.117Z,13.88
2023-01-03T18:34:59.081Z,9.95
2023-01-03T18:37:31.208Z,12.50
2023-01-03T18:39:58.582Z,11.48
2023-01-03T18:42:44.826Z,12.13
2023-01-03T18:45:13.264Z,11.02
2023-01-03T18:47:40.993Z,13.95
2023-01-03T18:50:08.713Z,16.13
2023-01-03T18:52:38.850Z,21.13
2023-01-03T18:55:07.702Z,15.45
2023-01-03T18:57:35.471Z,15.18
2023-01-03T19:00:03.195Z,19.90
2023-01-03T19:02:31.098Z,15.77
2023-01-03T19:04:58.622Z,15.80
2023-01-03T19:07:33.841Z,15.05
2023-01-03T19:10:01.731Z,11.00
2023-01-03T19:12:31.053Z,10.65
2023-01-03T19:14:58.426Z,10.32
2023-01-03T19:17:26.226Z,11.63
2023-01-03T19:19:53.573Z,13.40
2023-01-03T19:22:29.575Z,13.35
2023-01-03T19:25:00.194Z,10.43
2023-01-03T19:27:36.028Z,10.32
2023-01-03T19:30:05.212Z,15.55
2023-01-03T19:32:34.046Z,12.35
2023-01-03T19:35:01.663Z,13.30
2023-01-03T19:37:29.433Z,11.88
2023-01-03T19:39:56.827Z,10.45
2023-01-03T19:42:42.766Z,12.85
2023-01-03T19:45:33.122Z,10.80
2023-01-03T19:48:03.377Z,16.70
2023-01-03T19:50:33.665Z,12.90
2023-01-03T19:53:02.309Z,13.45
2023-01-03T19:55:35.286Z,11.13
2023-01-03T19:58:17.200Z,13.60
2023-01-03T20:00:44.976Z,13.85
2023-01-03T20:03:30.004Z,10.60
2023-01-03T20:05:58.468Z,12.32
2023-01-03T20:08:26.287Z,15.20
2023-01-03T20:10:54.411Z,11.30
2023-01-03T20:13:24.560Z,15.43
2023-01-03T20:15:54.754Z,10.27
2023-01-03T20:18:28.143Z,14.95
2023-01-03T20:20:57.963Z,11.18
2023-01-03T20:23:30.281Z,9.38
2023-01-03T20:25:57.740Z,10.82
2023-01-03T20:28:29.611Z,11.32
2023-01-03T20:31:01.259Z,13.70
2023-01-03T20:33:29.253Z,9.93
2023-01-03T20:36:16.200Z,12.05
2023-01-03T20:38:49.041Z,21.73
2023-01-03T20:41:18.141Z,12.65
2023-01-03T20:43:47.777Z,12.88
2023-01-03T20:46:20.902Z,13.88
2023-01-03T20:48:56.134Z,15.63
2023-01-03T20:51:26.875Z,13.45
2023-01-03T20:53:55.449Z,12.38
2023-01-03T20:56:23.560Z,9.70
2023-01-03T20:58:52.347Z,10.93
2023-01-03T21:01:19.757Z,12.23
2023-01-03T21:03:47.575Z,16.48
2023-01-03T21:06:22.176Z,18.02
2023-01-03T21:08:56.573Z,13.95
2023-01-03T21:11:25.340Z,16.45
2023-01-03T21:13:53.638Z,12.43
2023-01-03T21:16:37.611Z,19.73
2023-01-03T21:19:13.713Z,10.70
2023-01-03T21:21:43.033Z,20.55
2023-01-03T21:24:14.679Z,12.77
2023-01-03T21:26:42.176Z,10.70
2023-01-03T21:29:10.854Z,12.38
2023-01-03T21:31:39.219Z,15.65
2023-01-03T21:34:08.260Z,11.40
2023-01-03T21:36:36.091Z,16.23
2023-01-03T21:39:04.674Z,15.23
2023-01-03T21:41:34.628Z,14.90
2023-01-03T21:44:03.882Z,15.20
2023-01-03T21:46:31.372Z,16.42
2023-01-03T21:48:59.258Z,14.82
2023-01-03T21:51:37.872Z,11.50
2023-01-03T21:54:08.049Z,14.60
2023-01-03T21:56:46.049Z,9.50
2023-01-03T21:59:15.119Z,15.30
2023-01-03T22:02:03.045Z,20.23
2023-01-03T22:04:31.339Z,14.20
2023-01-03T22:07:01.119Z,15.15
2023-01-03T22:09:48.639Z,15.05
2023-01-03T22:12:16.610Z,16.48
2023-01-03T22:14:45.616Z,17.80
2023-01-03T22:17:13.004Z,13.98
2023-01-03T22:19:41.100Z,12.15
2023-01-03T22:22:08.465Z,19.20
2023-01-03T22:24:35.882Z,11.20
2023-01-03T22:27:03.140Z,13.88
2023-01-03T22:29:30.724Z,12.98
2023-01-03T22:31:58.225Z,15.18
2023-01-03T22:34:25.912Z,21.20
2023-01-03T22:36:53.121Z,12.48
2023-01-03T22:39:20.570Z,20.15
2023-01-03T22:41:47.897Z,17.63
2023-01-03T22:44:15.862Z,17.42
2023-01-03T22:46:43.425Z,14.35
2023-01-03T22:49:11.113Z,17.73
2023-01-03T22:51:38.415Z,14.88
2023-01-03T22:54:06.025Z,12.73
2023-01-03T22:56:33.333Z,19.80
2023-01-03T22:59:02.010Z,16.73
2023-01-03T23:01:29.680Z,18.15
2023-01-03T23:04:00.709Z,18.33
2023-01-03T23:06:29.413Z,13.75
2023-01-03T23:08:57.141Z,19.27
2023-01-03T23:11:45.356Z,17.70
2023-01-03T23:14:15.513Z,22.33
2023-01-03T23:16:43.008Z,14.95
2023-01-03T23:19:13.860Z,19.73
2023-01-03T23:21:41.764Z,17.10
2023-01-03T23:24:13.919Z,18.98
2023-01-03T23:26:41.229Z,18.83
2023-01-03T23:29:09.786Z,18.75
2023-01-03T23:31:37.068Z,12.32
2023-01-03T23:34:04.776Z,14.98
2023-01-03T23:36:32.134Z,10.32
2023-01-03T23:38:59.600Z,12.18
2023-01-03T23:41:26.748Z,16.75
2023-01-03T23:43:54.713Z,13.30
2023-01-03T23:46:23.920Z,13.95
2023-01-03T23:48:56.389Z,12.48
2023-01-03T23:51:24.278Z,17.27
2023-01-03T23:53:51.882Z,11.95
2023-01-03T23:56:20.599Z,16.15
2023-01-03T23:58:48.131Z,15.68
